SWR71L EDDM-LSZH
Flight info
| Callsign | SWR71L |
|---|---|
| Flight time | 0h 38m |
| Altitude | 22000 |
| Route | MERSI4Q MERSI Y100 MOMUK Y112 RAVED L856 NEGRA |
| Aircraft | A320/M-SDE3FGHIRWY/LB1 |
Departure
| Time | 2026-04-30 19:56 |
|---|---|
| Airport | Munich Airport (EDDM) |
Arrival
| Time | 2026-04-30 20:34 |
|---|---|
| Airport | Zürich Airport (LSZH) |
| Time | Latitude | Longitude | Altitude | Speed | Heading |
|---|---|---|---|---|---|
| 2026-04-30 19:26 | 48.34972 | 11.77969 | 1486 ft | 0 kts | 83° |
| 2026-04-30 19:44 | 48.34972 | 11.77939 | 1472 ft | 0 kts | 114° |
| 2026-04-30 19:44 | 48.34976 | 11.77926 | 1478 ft | 2 kts | 118° |
| 2026-04-30 19:44 | 48.34983 | 11.77905 | 1476 ft | 2 kts | 117° |
| 2026-04-30 19:44 | 48.34988 | 11.77888 | 1474 ft | 2 kts | 132° |
| 2026-04-30 19:45 | 48.34997 | 11.77878 | 1479 ft | 0 kts | 170° |
| 2026-04-30 19:47 | 48.34990 | 11.77880 | 1475 ft | 4 kts | 171° |
| 2026-04-30 19:48 | 48.34940 | 11.77889 | 1475 ft | 7 kts | 173° |
| 2026-04-30 19:48 | 48.34876 | 11.77889 | 1485 ft | 12 kts | 190° |
| 2026-04-30 19:48 | 48.34824 | 11.77877 | 1485 ft | 5 kts | 184° |
| 2026-04-30 19:48 | 48.34794 | 11.77879 | 1476 ft | 4 kts | 173° |
| 2026-04-30 19:49 | 48.34778 | 11.77882 | 1485 ft | 2 kts | 173° |
| 2026-04-30 19:49 | 48.34718 | 11.77892 | 1485 ft | 4 kts | 173° |
| 2026-04-30 19:49 | 48.34681 | 11.77894 | 1474 ft | 9 kts | 189° |
| 2026-04-30 19:50 | 48.34656 | 11.77822 | 1484 ft | 8 kts | 265° |
| 2026-04-30 19:50 | 48.34650 | 11.77727 | 1476 ft | 13 kts | 264° |
| 2026-04-30 19:50 | 48.34636 | 11.77551 | 1476 ft | 19 kts | 263° |
| 2026-04-30 19:50 | 48.34622 | 11.77358 | 1482 ft | 18 kts | 263° |
| 2026-04-30 19:51 | 48.34608 | 11.77183 | 1481 ft | 16 kts | 263° |
| 2026-04-30 19:51 | 48.34596 | 11.77027 | 1483 ft | 14 kts | 263° |
| 2026-04-30 19:51 | 48.34585 | 11.76884 | 1485 ft | 13 kts | 263° |
| 2026-04-30 19:51 | 48.34574 | 11.76743 | 1483 ft | 16 kts | 263° |
| 2026-04-30 19:52 | 48.34560 | 11.76561 | 1485 ft | 17 kts | 263° |
| 2026-04-30 19:52 | 48.34547 | 11.76393 | 1477 ft | 15 kts | 263° |
| 2026-04-30 19:52 | 48.34536 | 11.76243 | 1481 ft | 14 kts | 263° |
| 2026-04-30 19:52 | 48.34524 | 11.76098 | 1485 ft | 15 kts | 263° |
| 2026-04-30 19:53 | 48.34511 | 11.75925 | 1476 ft | 16 kts | 263° |
| 2026-04-30 19:53 | 48.34499 | 11.75772 | 1485 ft | 14 kts | 263° |
| 2026-04-30 19:53 | 48.34489 | 11.75634 | 1483 ft | 13 kts | 263° |
| 2026-04-30 19:53 | 48.34477 | 11.75495 | 1481 ft | 15 kts | 262° |
| 2026-04-30 19:54 | 48.34465 | 11.75327 | 1485 ft | 17 kts | 263° |
| 2026-04-30 19:54 | 48.34438 | 11.75221 | 1484 ft | 10 kts | 211° |
| 2026-04-30 19:54 | 48.34377 | 11.75223 | 1485 ft | 8 kts | 173° |
| 2026-04-30 19:54 | 48.34324 | 11.75232 | 1485 ft | 8 kts | 173° |
| 2026-04-30 19:55 | 48.34248 | 11.75246 | 1479 ft | 14 kts | 173° |
| 2026-04-30 19:55 | 48.34142 | 11.75267 | 1478 ft | 15 kts | 167° |
| 2026-04-30 19:55 | 48.34090 | 11.75392 | 1485 ft | 16 kts | 79° |
| 2026-04-30 19:55 | 48.34105 | 11.75587 | 1473 ft | 27 kts | 83° |
| 2026-04-30 19:56 | 48.34158 | 11.76267 | 1485 ft | 100 kts | 83° |
| 2026-04-30 19:56 | 48.34257 | 11.77570 | 1491 ft | 152 kts | 84° |
| 2026-04-30 19:56 | 48.34367 | 11.79163 | 2116 ft | 153 kts | 84° |
| 2026-04-30 19:56 | 48.34479 | 11.80749 | 2900 ft | 155 kts | 85° |
| 2026-04-30 19:57 | 48.34604 | 11.82459 | 3303 ft | 175 kts | 85° |
| 2026-04-30 19:57 | 48.34749 | 11.84399 | 3619 ft | 199 kts | 84° |
| 2026-04-30 19:57 | 48.34914 | 11.86563 | 4196 ft | 214 kts | 84° |
| 2026-04-30 19:57 | 48.35091 | 11.88816 | 5053 ft | 219 kts | 84° |
| 2026-04-30 19:58 | 48.35273 | 11.91121 | 5891 ft | 225 kts | 83° |
| 2026-04-30 19:58 | 48.35423 | 11.93508 | 6672 ft | 234 kts | 92° |
| 2026-04-30 19:58 | 48.34977 | 11.95897 | 7214 ft | 246 kts | 120° |
| 2026-04-30 19:58 | 48.33746 | 11.97703 | 7869 ft | 251 kts | 141° |
| 2026-04-30 19:59 | 48.32344 | 11.99292 | 8771 ft | 253 kts | 139° |
| 2026-04-30 19:59 | 48.30942 | 12.00918 | 9641 ft | 257 kts | 141° |
| 2026-04-30 19:59 | 48.27314 | 12.02384 | 10606 ft | 307 kts | 189° |
| 2026-04-30 20:00 | 48.25310 | 12.00952 | 10882 ft | 337 kts | 219° |
| 2026-04-30 20:00 | 48.23843 | 11.98086 | 11215 ft | 357 kts | 243° |
| 2026-04-30 20:00 | 48.22880 | 11.94604 | 11841 ft | 365 kts | 252° |
| 2026-04-30 20:00 | 48.22177 | 11.90918 | 12553 ft | 371 kts | 257° |
| 2026-04-30 20:01 | 48.20945 | 11.83295 | 13998 ft | 382 kts | 257° |
| 2026-04-30 20:01 | 48.20503 | 11.80755 | 14422 ft | 385 kts | 256° |
| 2026-04-30 20:01 | 48.19795 | 11.77004 | 15029 ft | 390 kts | 255° |
| 2026-04-30 20:02 | 48.18145 | 11.69143 | 16288 ft | 400 kts | 253° |
| 2026-04-30 20:02 | 48.16990 | 11.63866 | 17119 ft | 405 kts | 253° |
| 2026-04-30 20:03 | 48.15223 | 11.55760 | 18353 ft | 413 kts | 254° |
| 2026-04-30 20:03 | 48.14620 | 11.52967 | 18765 ft | 416 kts | 254° |
| 2026-04-30 20:03 | 48.13731 | 11.48842 | 19193 ft | 419 kts | 255° |
| 2026-04-30 20:03 | 48.12548 | 11.43333 | 19342 ft | 420 kts | 255° |
| 2026-04-30 20:04 | 48.11946 | 11.40524 | 19358 ft | 419 kts | 255° |
| 2026-04-30 20:04 | 48.11066 | 11.36437 | 19356 ft | 419 kts | 255° |
| 2026-04-30 20:04 | 48.10169 | 11.32282 | 19355 ft | 419 kts | 255° |
| 2026-04-30 20:05 | 48.08375 | 11.24007 | 19357 ft | 419 kts | 255° |
| 2026-04-30 20:05 | 48.07486 | 11.19916 | 19353 ft | 418 kts | 255° |
| 2026-04-30 20:05 | 48.05688 | 11.11665 | 19327 ft | 418 kts | 254° |
| 2026-04-30 20:06 | 48.04789 | 11.07556 | 19429 ft | 417 kts | 254° |
| 2026-04-30 20:06 | 48.03883 | 11.03427 | 19671 ft | 418 kts | 254° |
| 2026-04-30 20:06 | 48.02973 | 10.99298 | 19913 ft | 419 kts | 254° |
| 2026-04-30 20:06 | 48.02056 | 10.95150 | 20158 ft | 421 kts | 254° |
| 2026-04-30 20:07 | 48.01137 | 10.90989 | 20312 ft | 422 kts | 254° |
| 2026-04-30 20:07 | 48.00216 | 10.86818 | 20333 ft | 422 kts | 254° |
| 2026-04-30 20:07 | 47.98443 | 10.78826 | 20331 ft | 422 kts | 254° |
| 2026-04-30 20:08 | 47.97513 | 10.74663 | 20329 ft | 422 kts | 254° |
| 2026-04-30 20:08 | 47.96585 | 10.70509 | 20332 ft | 422 kts | 254° |
| 2026-04-30 20:08 | 47.95658 | 10.66356 | 20330 ft | 422 kts | 254° |
| 2026-04-30 20:08 | 47.94729 | 10.62205 | 20323 ft | 421 kts | 253° |
| 2026-04-30 20:09 | 47.93800 | 10.58063 | 20331 ft | 421 kts | 253° |
| 2026-04-30 20:09 | 47.92869 | 10.53915 | 20329 ft | 421 kts | 253° |
| 2026-04-30 20:09 | 47.91009 | 10.45641 | 20323 ft | 421 kts | 253° |
| 2026-04-30 20:10 | 47.89143 | 10.37370 | 20323 ft | 421 kts | 253° |
| 2026-04-30 20:10 | 47.88216 | 10.33287 | 20314 ft | 421 kts | 253° |
| 2026-04-30 20:10 | 47.87274 | 10.29153 | 20326 ft | 421 kts | 253° |
| 2026-04-30 20:11 | 47.85379 | 10.20841 | 20325 ft | 421 kts | 253° |
| 2026-04-30 20:11 | 47.84435 | 10.16712 | 20303 ft | 421 kts | 253° |
| 2026-04-30 20:11 | 47.83494 | 10.12599 | 20320 ft | 420 kts | 253° |
| 2026-04-30 20:12 | 47.81607 | 10.04384 | 20314 ft | 419 kts | 253° |
| 2026-04-30 20:12 | 47.80661 | 10.00280 | 20298 ft | 419 kts | 253° |
| 2026-04-30 20:12 | 47.79715 | 9.96180 | 20286 ft | 419 kts | 253° |
| 2026-04-30 20:13 | 47.78768 | 9.92082 | 20280 ft | 419 kts | 253° |
| 2026-04-30 20:13 | 47.77818 | 9.87980 | 20277 ft | 419 kts | 253° |
| 2026-04-30 20:13 | 47.76871 | 9.83897 | 20277 ft | 419 kts | 253° |
| 2026-04-30 20:13 | 47.75931 | 9.79856 | 20274 ft | 420 kts | 253° |
| 2026-04-30 20:14 | 47.74963 | 9.75711 | 20277 ft | 420 kts | 252° |
| 2026-04-30 20:14 | 47.74007 | 9.71617 | 20274 ft | 420 kts | 253° |
| 2026-04-30 20:14 | 47.73186 | 9.67474 | 20272 ft | 417 kts | 260° |
| 2026-04-30 20:14 | 47.72817 | 9.63230 | 20273 ft | 413 kts | 270° |
| 2026-04-30 20:15 | 47.72707 | 9.58967 | 20274 ft | 413 kts | 270° |
| 2026-04-30 20:15 | 47.72587 | 9.54705 | 20274 ft | 413 kts | 270° |
| 2026-04-30 20:15 | 47.72459 | 9.50435 | 20274 ft | 413 kts | 269° |
| 2026-04-30 20:15 | 47.72042 | 9.46202 | 20273 ft | 416 kts | 258° |
| 2026-04-30 20:16 | 47.71118 | 9.42120 | 20275 ft | 418 kts | 247° |
| 2026-04-30 20:16 | 47.69724 | 9.38328 | 20277 ft | 419 kts | 236° |
| 2026-04-30 20:16 | 47.67939 | 9.34901 | 20280 ft | 420 kts | 231° |
| 2026-04-30 20:16 | 47.66089 | 9.31548 | 20271 ft | 420 kts | 231° |
| 2026-04-30 20:17 | 47.64261 | 9.28242 | 20273 ft | 420 kts | 231° |
| 2026-04-30 20:17 | 47.62485 | 9.24846 | 20270 ft | 419 kts | 236° |
| 2026-04-30 20:17 | 47.61061 | 9.21095 | 20285 ft | 418 kts | 246° |
| 2026-04-30 20:17 | 47.60036 | 9.17078 | 20280 ft | 416 kts | 255° |
| 2026-04-30 20:18 | 47.59419 | 9.12908 | 20280 ft | 414 kts | 264° |
| 2026-04-30 20:18 | 47.59282 | 9.08664 | 20283 ft | 411 kts | 276° |
| 2026-04-30 20:18 | 47.59698 | 9.04524 | 20282 ft | 407 kts | 288° |
| 2026-04-30 20:18 | 47.60655 | 9.00603 | 20282 ft | 403 kts | 299° |
| 2026-04-30 20:19 | 47.62089 | 8.97069 | 20286 ft | 398 kts | 310° |
| 2026-04-30 20:19 | 47.63914 | 8.94021 | 20285 ft | 394 kts | 319° |
| 2026-04-30 20:19 | 47.65853 | 8.91148 | 20290 ft | 394 kts | 319° |
| 2026-04-30 20:19 | 47.67786 | 8.88259 | 20285 ft | 394 kts | 318° |
| 2026-04-30 20:20 | 47.69687 | 8.85395 | 20057 ft | 385 kts | 318° |
| 2026-04-30 20:20 | 47.71553 | 8.82574 | 19798 ft | 381 kts | 318° |
| 2026-04-30 20:20 | 47.73403 | 8.79778 | 19580 ft | 379 kts | 318° |
| 2026-04-30 20:20 | 47.75231 | 8.76958 | 19340 ft | 379 kts | 313° |
| 2026-04-30 20:21 | 47.76634 | 8.73628 | 19104 ft | 384 kts | 294° |
| 2026-04-30 20:21 | 47.77184 | 8.69744 | 18872 ft | 388 kts | 271° |
| 2026-04-30 20:21 | 47.76702 | 8.65814 | 18639 ft | 390 kts | 248° |
| 2026-04-30 20:21 | 47.75309 | 8.62429 | 18372 ft | 381 kts | 226° |
| 2026-04-30 20:22 | 47.73288 | 8.59998 | 18013 ft | 372 kts | 206° |
| 2026-04-30 20:22 | 47.70879 | 8.58722 | 17518 ft | 365 kts | 186° |
| 2026-04-30 20:22 | 47.68378 | 8.58704 | 17011 ft | 358 kts | 167° |
| 2026-04-30 20:22 | 47.66046 | 8.59841 | 16526 ft | 351 kts | 152° |
| 2026-04-30 20:23 | 47.63854 | 8.61349 | 16022 ft | 351 kts | 152° |
| 2026-04-30 20:23 | 47.61662 | 8.62860 | 15753 ft | 340 kts | 152° |
| 2026-04-30 20:23 | 47.59556 | 8.64309 | 15676 ft | 327 kts | 152° |
| 2026-04-30 20:23 | 47.57527 | 8.65704 | 15597 ft | 316 kts | 152° |
| 2026-04-30 20:24 | 47.55555 | 8.67058 | 15355 ft | 311 kts | 152° |
| 2026-04-30 20:24 | 47.53594 | 8.68408 | 14986 ft | 311 kts | 152° |
| 2026-04-30 20:24 | 47.51629 | 8.69763 | 14606 ft | 311 kts | 152° |
| 2026-04-30 20:24 | 47.49664 | 8.71117 | 14219 ft | 312 kts | 152° |
| 2026-04-30 20:25 | 47.45771 | 8.73786 | 13421 ft | 311 kts | 152° |
| 2026-04-30 20:25 | 47.43814 | 8.75125 | 13035 ft | 310 kts | 153° |
| 2026-04-30 20:26 | 47.39935 | 8.77776 | 12258 ft | 308 kts | 153° |
| 2026-04-30 20:26 | 47.36060 | 8.80418 | 11487 ft | 305 kts | 153° |
| 2026-04-30 20:26 | 47.34131 | 8.81732 | 11049 ft | 306 kts | 153° |
| 2026-04-30 20:27 | 47.30308 | 8.84272 | 10161 ft | 295 kts | 161° |
| 2026-04-30 20:27 | 47.26440 | 8.83282 | 8708 ft | 299 kts | 221° |
| 2026-04-30 20:28 | 47.24383 | 8.78019 | 7291 ft | 295 kts | 245° |
| 2026-04-30 20:28 | 47.23290 | 8.72803 | 7026 ft | 248 kts | 276° |
| 2026-04-30 20:29 | 47.25164 | 8.68936 | 6127 ft | 237 kts | 335° |
| 2026-04-30 20:30 | 47.29440 | 8.66032 | 5142 ft | 215 kts | 336° |
| 2026-04-30 20:30 | 47.33344 | 8.63361 | 4252 ft | 195 kts | 339° |
| 2026-04-30 20:31 | 47.36571 | 8.61145 | 3489 ft | 150 kts | 344° |
| 2026-04-30 20:32 | 47.39213 | 8.59338 | 2858 ft | 140 kts | 343° |
| 2026-04-30 20:32 | 47.40961 | 8.58139 | 2418 ft | 138 kts | 340° |
| 2026-04-30 20:33 | 47.41835 | 8.57540 | 2201 ft | 138 kts | 339° |
| 2026-04-30 20:33 | 47.43567 | 8.56317 | 1733 ft | 139 kts | 339° |
| 2026-04-30 20:33 | 47.44390 | 8.55780 | 1562 ft | 137 kts | 339° |
| 2026-04-30 20:34 | 47.45929 | 8.54726 | 1386 ft | 81 kts | 334° |
| 2026-04-30 20:34 | 47.46414 | 8.54419 | 1382 ft | 18 kts | 13° |
| 2026-04-30 20:35 | 47.46458 | 8.54504 | 1382 ft | 8 kts | 66° |
| 2026-04-30 20:35 | 47.46471 | 8.54546 | 1384 ft | 0 kts | 65° |
| 2026-04-30 20:36 | 47.46480 | 8.54585 | 1385 ft | 7 kts | 81° |
| 2026-04-30 20:37 | 47.46444 | 8.54651 | 1386 ft | 9 kts | 159° |
| 2026-04-30 20:37 | 47.46386 | 8.54689 | 1384 ft | 9 kts | 155° |
| 2026-04-30 20:37 | 47.46333 | 8.54725 | 1383 ft | 8 kts | 155° |
| 2026-04-30 20:37 | 47.46289 | 8.54756 | 1384 ft | 7 kts | 154° |